Anzoras — EAZC — position and weather

sailwx.info

Track history (hours):
 
Tides and Currents Weather Stations Pressure Air Temp Water Temp Dewpoint Dewpoint Depression Visibility Wind Speed Wind Dir Waves Ship Positions

Anzoras

Last reported at 2014-Dec-21 09:32 UTC. Time now 2014-Dec-23 02:18 UTC.
Position N 39°05' W 009°51'.

Length 100 m; draft 4.3 m.

Type: Cargo ship. MMSI: 224376000.

Date/timePositionNaut miles runAvg speedWind from/ knotsBaromVisibWave heightAir tempDewpointWater temp
2014-Dec-21 09:32N 39°05' W 009°51'1210.8
2014-Dec-21 08:27N 38°54' W 009°52'1010.7
2014-Dec-21 07:30N 38°44' W 009°52'1010.5
2014-Dec-21 06:32N 38°34' W 009°49'1110.3
2014-Dec-21 05:28N 38°23' W 009°47'1410.4
2014-Dec-21 04:10N 38°10' W 009°43'1110.6
2014-Dec-21 03:09N 37°59' W 009°40'710.5
2014-Dec-21 02:28N 37°52' W 009°37'2110.7
2014-Dec-21 00:32N 37°32' W 009°31'3110.4
2014-Dec-20 21:33N 37°02' W 009°23'1010.5
2014-Dec-20 20:33N 36°52' W 009°18'1110.6
2014-Dec-20 19:31N 36°45' W 009°08'1010.8
2014-Dec-20 18:33N 36°42' W 008°56'17010.5
2014-Dec-20 02:23N 35°59' W 005°31'7 8.9
2014-Dec-20 01:33N 36°03' W 005°24'3 0.2
2014-Dec-19 09:06N 36°07' W 005°23'5 9.3
2014-Dec-19 08:33N 36°06' W 005°17'217 9.7
2014-Dec-18 10:05N 37°16' W 001°01'510.2
2014-Dec-18 09:33N 37°19' W 000°56'2612.6
2014-Dec-18 07:27N 37°37' W 000°31'109 9.9
2014-Dec-17 20:25N 39°25' W 000°18'2 0.8
2014-Dec-17 18:30N 39°27' W 000°19'0 0.0
2014-Dec-17 17:30N 39°27' W 000°19'0 0.0
2014-Dec-17 11:06N 39°27' W 000°19'0 0.0
2014-Dec-17 08:24N 39°27' W 000°19'0 0.0
2014-Dec-17 07:30N 39°27' W 000°19'0 0.0
2014-Dec-16 23:06N 39°27' W 000°19'0 0.0
2014-Dec-16 18:30N 39°27' W 000°19'0 0.0
2014-Dec-16 17:27N 39°27' W 000°19'0 0.0
2014-Dec-16 16:24N 39°27' W 000°19'0 0.0
2014-Dec-16 15:27N 39°27' W 000°19'4 4.4
2014-Dec-16 14:31N 39°23' W 000°16'0 0.0
2014-Dec-15 17:31N 39°23' W 000°16'0 0.0
2014-Dec-15 13:31N 39°23' W 000°16'0 0.0
2014-Dec-15 12:25N 39°23' W 000°16'0 0.0
2014-Dec-15 05:31N 39°23' W 000°16'0 0.0
2014-Dec-15 04:31N 39°23' W 000°16'0 0.0
2014-Dec-15 02:25N 39°23' W 000°16'0 0.0
2014-Dec-15 01:31N 39°23' W 000°16'0 0.0
2014-Dec-14 17:31N 39°23' W 000°16'0 0.0
2014-Dec-14 16:19N 39°23' W 000°16'0 0.0
2014-Dec-14 10:23N 39°23' W 000°16'9510.7
2014-Dec-14 01:28N 38°31' E 001°27'7011.2
2014-Dec-13 19:13N 37°57' E 002°45'  
Track history (hours):
 
Tides and Currents Weather Stations Pressure Air Temp Water Temp Dewpoint Dewpoint Depression Visibility Wind Speed Wind Dir Waves Ship Positions

Anzoras

Last reported at 2014-Dec-21 09:32 UTC. Time now 2014-Dec-23 02:18 UTC.
Position N 39°05' W 009°51'.

Length 100 m; draft 4.3 m.

Type: Cargo ship. MMSI: 224376000.

Date/timePositionNaut miles runAvg speedWind from/ knotsBaromVisibWave heightAir tempDewpointWater temp
2014-Dec-21 09:32N 39°05' W 009°51'1210.8
2014-Dec-21 08:27N 38°54' W 009°52'1010.7
2014-Dec-21 07:30N 38°44' W 009°52'1010.5
2014-Dec-21 06:32N 38°34' W 009°49'1110.3
2014-Dec-21 05:28N 38°23' W 009°47'1410.4
2014-Dec-21 04:10N 38°10' W 009°43'1110.6
2014-Dec-21 03:09N 37°59' W 009°40'710.5
2014-Dec-21 02:28N 37°52' W 009°37'2110.7
2014-Dec-21 00:32N 37°32' W 009°31'3110.4
2014-Dec-20 21:33N 37°02' W 009°23'1010.5
2014-Dec-20 20:33N 36°52' W 009°18'1110.6
2014-Dec-20 19:31N 36°45' W 009°08'1010.8
2014-Dec-20 18:33N 36°42' W 008°56'17010.5
2014-Dec-20 02:23N 35°59' W 005°31'7 8.9
2014-Dec-20 01:33N 36°03' W 005°24'3 0.2
2014-Dec-19 09:06N 36°07' W 005°23'5 9.3
2014-Dec-19 08:33N 36°06' W 005°17'217 9.7
2014-Dec-18 10:05N 37°16' W 001°01'510.2
2014-Dec-18 09:33N 37°19' W 000°56'2612.6
2014-Dec-18 07:27N 37°37' W 000°31'109 9.9
2014-Dec-17 20:25N 39°25' W 000°18'2 0.8
2014-Dec-17 18:30N 39°27' W 000°19'0 0.0
2014-Dec-17 17:30N 39°27' W 000°19'0 0.0
2014-Dec-17 11:06N 39°27' W 000°19'0 0.0
2014-Dec-17 08:24N 39°27' W 000°19'0 0.0
2014-Dec-17 07:30N 39°27' W 000°19'0 0.0
2014-Dec-16 23:06N 39°27' W 000°19'0 0.0
2014-Dec-16 18:30N 39°27' W 000°19'0 0.0
2014-Dec-16 17:27N 39°27' W 000°19'0 0.0
2014-Dec-16 16:24N 39°27' W 000°19'0 0.0
2014-Dec-16 15:27N 39°27' W 000°19'4 4.4
2014-Dec-16 14:31N 39°23' W 000°16'0 0.0
2014-Dec-15 17:31N 39°23' W 000°16'0 0.0
2014-Dec-15 13:31N 39°23' W 000°16'0 0.0
2014-Dec-15 12:25N 39°23' W 000°16'0 0.0
2014-Dec-15 05:31N 39°23' W 000°16'0 0.0
2014-Dec-15 04:31N 39°23' W 000°16'0 0.0
2014-Dec-15 02:25N 39°23' W 000°16'0 0.0
2014-Dec-15 01:31N 39°23' W 000°16'0 0.0
2014-Dec-14 17:31N 39°23' W 000°16'0 0.0
2014-Dec-14 16:19N 39°23' W 000°16'0 0.0
2014-Dec-14 10:23N 39°23' W 000°16'9510.7
2014-Dec-14 01:28N 38°31' E 001°27'7011.2
2014-Dec-13 19:13N 37°57' E 002°45'  

Dump ship's entire track history